sensor_id;sensor_type;location;lat;lon;timestamp;P1;durP1;ratioP1;P2;durP2;ratioP2
4089;SDS011;2059;48.538;12.146;2024-03-06T00:02:36;16.63;;;14.23;;
4089;SDS011;2059;48.538;12.146;2024-03-06T00:07:39;15.67;;;14.07;;
4089;SDS011;2059;48.538;12.146;2024-03-06T00:12:41;15.07;;;13.47;;
4089;SDS011;2059;48.538;12.146;2024-03-06T00:17:43;14.83;;;13.13;;
4089;SDS011;2059;48.538;12.146;2024-03-06T00:22:46;14.70;;;13.20;;
4089;SDS011;2059;48.538;12.146;2024-03-06T00:27:48;14.03;;;12.30;;
4089;SDS011;2059;48.538;12.146;2024-03-06T00:32:49;14.23;;;12.80;;
4089;SDS011;2059;48.538;12.146;2024-03-06T00:37:52;13.70;;;12.30;;
4089;SDS011;2059;48.538;12.146;2024-03-06T00:42:54;13.73;;;12.33;;
4089;SDS011;2059;48.538;12.146;2024-03-06T00:47:56;12.53;;;11.33;;
4089;SDS011;2059;48.538;12.146;2024-03-06T00:53:00;12.60;;;11.27;;
4089;SDS011;2059;48.538;12.146;2024-03-06T00:58:01;12.33;;;11.03;;
4089;SDS011;2059;48.538;12.146;2024-03-06T01:03:03;15.20;;;12.13;;
4089;SDS011;2059;48.538;12.146;2024-03-06T01:08:07;14.53;;;12.60;;
4089;SDS011;2059;48.538;12.146;2024-03-06T01:13:08;13.63;;;12.20;;
4089;SDS011;2059;48.538;12.146;2024-03-06T01:18:11;13.63;;;12.23;;
4089;SDS011;2059;48.538;12.146;2024-03-06T01:23:14;13.80;;;12.47;;
4089;SDS011;2059;48.538;12.146;2024-03-06T01:28:16;15.60;;;12.63;;
4089;SDS011;2059;48.538;12.146;2024-03-06T01:33:18;13.67;;;12.37;;
4089;SDS011;2059;48.538;12.146;2024-03-06T01:38:21;14.90;;;13.40;;
4089;SDS011;2059;48.538;12.146;2024-03-06T01:43:23;14.20;;;12.73;;
4089;SDS011;2059;48.538;12.146;2024-03-06T01:48:27;14.77;;;13.37;;
4089;SDS011;2059;48.538;12.146;2024-03-06T01:53:32;15.77;;;13.93;;
4089;SDS011;2059;48.538;12.146;2024-03-06T01:58:35;14.17;;;12.43;;
4089;SDS011;2059;48.538;12.146;2024-03-06T02:03:37;14.43;;;12.60;;
4089;SDS011;2059;48.538;12.146;2024-03-06T02:08:40;14.90;;;12.20;;
4089;SDS011;2059;48.538;12.146;2024-03-06T02:13:42;13.93;;;12.43;;
4089;SDS011;2059;48.538;12.146;2024-03-06T02:18:53;15.93;;;12.80;;
4089;SDS011;2059;48.538;12.146;2024-03-06T02:23:58;14.47;;;12.93;;
4089;SDS011;2059;48.538;12.146;2024-03-06T02:28:59;15.50;;;12.80;;
4089;SDS011;2059;48.538;12.146;2024-03-06T02:34:01;14.87;;;12.83;;
4089;SDS011;2059;48.538;12.146;2024-03-06T02:39:07;16.47;;;13.43;;
4089;SDS011;2059;48.538;12.146;2024-03-06T02:44:09;17.13;;;13.13;;
4089;SDS011;2059;48.538;12.146;2024-03-06T02:49:11;15.60;;;13.50;;
4089;SDS011;2059;48.538;12.146;2024-03-06T02:54:14;18.90;;;13.93;;
4089;SDS011;2059;48.538;12.146;2024-03-06T02:59:16;16.77;;;15.00;;
4089;SDS011;2059;48.538;12.146;2024-03-06T03:04:18;15.43;;;13.80;;
4089;SDS011;2059;48.538;12.146;2024-03-06T03:09:21;18.13;;;16.00;;
4089;SDS011;2059;48.538;12.146;2024-03-06T03:14:23;16.63;;;14.57;;
4089;SDS011;2059;48.538;12.146;2024-03-06T03:19:25;16.50;;;14.17;;
4089;SDS011;2059;48.538;12.146;2024-03-06T03:24:28;17.30;;;14.37;;
4089;SDS011;2059;48.538;12.146;2024-03-06T03:29:30;19.17;;;15.50;;
4089;SDS011;2059;48.538;12.146;2024-03-06T03:34:33;16.20;;;13.97;;
4089;SDS011;2059;48.538;12.146;2024-03-06T03:39:36;26.30;;;19.63;;
4089;SDS011;2059;48.538;12.146;2024-03-06T03:44:38;25.00;;;19.53;;
4089;SDS011;2059;48.538;12.146;2024-03-06T03:49:40;26.43;;;20.30;;
4089;SDS011;2059;48.538;12.146;2024-03-06T03:54:44;31.77;;;22.10;;
4089;SDS011;2059;48.538;12.146;2024-03-06T03:59:45;23.30;;;19.03;;
4089;SDS011;2059;48.538;12.146;2024-03-06T04:04:47;23.17;;;17.03;;
4089;SDS011;2059;48.538;12.146;2024-03-06T04:09:50;18.60;;;15.13;;
4089;SDS011;2059;48.538;12.146;2024-03-06T04:14:52;21.03;;;15.37;;
4089;SDS011;2059;48.538;12.146;2024-03-06T04:19:54;17.80;;;14.43;;
4089;SDS011;2059;48.538;12.146;2024-03-06T04:24:58;18.43;;;14.40;;
4089;SDS011;2059;48.538;12.146;2024-03-06T04:29:59;17.30;;;14.10;;
4089;SDS011;2059;48.538;12.146;2024-03-06T04:35:01;23.20;;;15.67;;
4089;SDS011;2059;48.538;12.146;2024-03-06T04:40:05;19.40;;;14.87;;
4089;SDS011;2059;48.538;12.146;2024-03-06T04:45:10;17.00;;;14.10;;
4089;SDS011;2059;48.538;12.146;2024-03-06T04:50:12;19.27;;;15.60;;
4089;SDS011;2059;48.538;12.146;2024-03-06T04:55:17;22.50;;;16.17;;
4089;SDS011;2059;48.538;12.146;2024-03-06T05:00:22;20.03;;;16.07;;
4089;SDS011;2059;48.538;12.146;2024-03-06T05:05:24;21.33;;;15.97;;
4089;SDS011;2059;48.538;12.146;2024-03-06T05:10:28;24.50;;;17.23;;
4089;SDS011;2059;48.538;12.146;2024-03-06T05:15:30;23.73;;;17.80;;
4089;SDS011;2059;48.538;12.146;2024-03-06T05:20:31;22.03;;;16.27;;
4089;SDS011;2059;48.538;12.146;2024-03-06T05:25:34;19.53;;;15.70;;
4089;SDS011;2059;48.538;12.146;2024-03-06T05:30:36;21.50;;;16.23;;
4089;SDS011;2059;48.538;12.146;2024-03-06T05:35:39;25.53;;;19.93;;
4089;SDS011;2059;48.538;12.146;2024-03-06T05:40:42;25.43;;;18.73;;
4089;SDS011;2059;48.538;12.146;2024-03-06T05:45:45;26.90;;;21.03;;
4089;SDS011;2059;48.538;12.146;2024-03-06T05:50:48;30.60;;;23.07;;
4089;SDS011;2059;48.538;12.146;2024-03-06T05:55:51;28.63;;;21.43;;
4089;SDS011;2059;48.538;12.146;2024-03-06T06:00:54;27.90;;;19.80;;
4089;SDS011;2059;48.538;12.146;2024-03-06T06:05:56;24.37;;;17.17;;
4089;SDS011;2059;48.538;12.146;2024-03-06T06:11:00;21.90;;;17.40;;
4089;SDS011;2059;48.538;12.146;2024-03-06T06:16:03;25.20;;;20.20;;
4089;SDS011;2059;48.538;12.146;2024-03-06T06:21:05;29.30;;;21.83;;
4089;SDS011;2059;48.538;12.146;2024-03-06T06:26:09;30.77;;;22.20;;
4089;SDS011;2059;48.538;12.146;2024-03-06T06:31:11;31.00;;;21.60;;
4089;SDS011;2059;48.538;12.146;2024-03-06T06:36:13;33.43;;;22.20;;
4089;SDS011;2059;48.538;12.146;2024-03-06T06:41:16;34.60;;;25.63;;
4089;SDS011;2059;48.538;12.146;2024-03-06T06:46:19;36.37;;;26.70;;
4089;SDS011;2059;48.538;12.146;2024-03-06T06:51:21;40.30;;;27.67;;
4089;SDS011;2059;48.538;12.146;2024-03-06T06:56:25;36.73;;;26.07;;
4089;SDS011;2059;48.538;12.146;2024-03-06T07:01:26;39.83;;;27.13;;
4089;SDS011;2059;48.538;12.146;2024-03-06T07:06:28;44.10;;;33.00;;
4089;SDS011;2059;48.538;12.146;2024-03-06T07:11:32;40.77;;;29.37;;
4089;SDS011;2059;48.538;12.146;2024-03-06T07:16:34;27.73;;;22.13;;
4089;SDS011;2059;48.538;12.146;2024-03-06T07:21:36;33.47;;;24.97;;
4089;SDS011;2059;48.538;12.146;2024-03-06T07:26:40;26.27;;;18.93;;
4089;SDS011;2059;48.538;12.146;2024-03-06T07:31:41;30.27;;;20.50;;
4089;SDS011;2059;48.538;12.146;2024-03-06T07:36:44;28.87;;;21.50;;
4089;SDS011;2059;48.538;12.146;2024-03-06T07:41:47;26.30;;;20.40;;
4089;SDS011;2059;48.538;12.146;2024-03-06T07:46:49;30.50;;;22.40;;
4089;SDS011;2059;48.538;12.146;2024-03-06T07:51:51;33.83;;;24.53;;
4089;SDS011;2059;48.538;12.146;2024-03-06T07:56:55;28.70;;;22.07;;
4089;SDS011;2059;48.538;12.146;2024-03-06T08:01:56;29.50;;;23.43;;
4089;SDS011;2059;48.538;12.146;2024-03-06T08:06:58;33.20;;;24.90;;
4089;SDS011;2059;48.538;12.146;2024-03-06T08:12:01;28.77;;;23.37;;
4089;SDS011;2059;48.538;12.146;2024-03-06T08:17:03;31.77;;;23.73;;
4089;SDS011;2059;48.538;12.146;2024-03-06T08:22:05;29.23;;;23.20;;
4089;SDS011;2059;48.538;12.146;2024-03-06T08:27:08;31.03;;;25.00;;
4089;SDS011;2059;48.538;12.146;2024-03-06T08:32:09;32.77;;;25.10;;
4089;SDS011;2059;48.538;12.146;2024-03-06T08:37:11;31.97;;;24.97;;
4089;SDS011;2059;48.538;12.146;2024-03-06T08:42:14;31.87;;;25.60;;
4089;SDS011;2059;48.538;12.146;2024-03-06T08:47:18;31.23;;;24.70;;
4089;SDS011;2059;48.538;12.146;2024-03-06T08:52:20;29.97;;;25.23;;
4089;SDS011;2059;48.538;12.146;2024-03-06T08:57:23;32.27;;;25.97;;
4089;SDS011;2059;48.538;12.146;2024-03-06T09:02:28;32.30;;;25.53;;
4089;SDS011;2059;48.538;12.146;2024-03-06T09:07:30;31.13;;;24.80;;
4089;SDS011;2059;48.538;12.146;2024-03-06T09:12:38;30.90;;;24.00;;
4089;SDS011;2059;48.538;12.146;2024-03-06T09:17:40;26.33;;;22.43;;
4089;SDS011;2059;48.538;12.146;2024-03-06T09:22:42;27.63;;;22.23;;
4089;SDS011;2059;48.538;12.146;2024-03-06T09:27:45;27.33;;;23.43;;
4089;SDS011;2059;48.538;12.146;2024-03-06T09:32:47;27.60;;;22.50;;
4089;SDS011;2059;48.538;12.146;2024-03-06T09:37:49;29.13;;;25.10;;
4089;SDS011;2059;48.538;12.146;2024-03-06T09:42:52;28.37;;;22.90;;
4089;SDS011;2059;48.538;12.146;2024-03-06T09:47:54;27.33;;;22.23;;
4089;SDS011;2059;48.538;12.146;2024-03-06T09:52:55;25.73;;;21.27;;
4089;SDS011;2059;48.538;12.146;2024-03-06T09:57:59;25.87;;;22.27;;
4089;SDS011;2059;48.538;12.146;2024-03-06T10:03:03;23.63;;;21.07;;
4089;SDS011;2059;48.538;12.146;2024-03-06T10:08:08;25.23;;;21.17;;
4089;SDS011;2059;48.538;12.146;2024-03-06T10:13:11;22.80;;;19.97;;
4089;SDS011;2059;48.538;12.146;2024-03-06T10:18:13;22.90;;;19.70;;
4089;SDS011;2059;48.538;12.146;2024-03-06T10:23:18;23.33;;;20.73;;
4089;SDS011;2059;48.538;12.146;2024-03-06T10:28:21;23.20;;;20.07;;
4089;SDS011;2059;48.538;12.146;2024-03-06T10:33:24;20.83;;;18.70;;
4089;SDS011;2059;48.538;12.146;2024-03-06T10:38:29;21.10;;;18.90;;
4089;SDS011;2059;48.538;12.146;2024-03-06T10:43:36;20.80;;;18.70;;
4089;SDS011;2059;48.538;12.146;2024-03-06T10:48:40;24.23;;;20.17;;
4089;SDS011;2059;48.538;12.146;2024-03-06T10:53:44;21.33;;;19.00;;
4089;SDS011;2059;48.538;12.146;2024-03-06T10:58:48;21.43;;;19.20;;
4089;SDS011;2059;48.538;12.146;2024-03-06T11:03:52;19.03;;;17.13;;
4089;SDS011;2059;48.538;12.146;2024-03-06T11:08:54;20.83;;;18.73;;
4089;SDS011;2059;48.538;12.146;2024-03-06T11:13:57;20.43;;;18.40;;
4089;SDS011;2059;48.538;12.146;2024-03-06T11:19:05;20.10;;;18.13;;
4089;SDS011;2059;48.538;12.146;2024-03-06T11:24:12;20.47;;;18.57;;
4089;SDS011;2059;48.538;12.146;2024-03-06T11:29:19;19.03;;;17.13;;
4089;SDS011;2059;48.538;12.146;2024-03-06T11:34:21;19.30;;;17.30;;
4089;SDS011;2059;48.538;12.146;2024-03-06T11:39:27;22.83;;;20.23;;
4089;SDS011;2059;48.538;12.146;2024-03-06T11:44:31;19.67;;;17.50;;
4089;SDS011;2059;48.538;12.146;2024-03-06T11:49:33;21.07;;;18.83;;
4089;SDS011;2059;48.538;12.146;2024-03-06T11:54:37;21.17;;;19.07;;
4089;SDS011;2059;48.538;12.146;2024-03-06T11:59:40;26.73;;;23.87;;
4089;SDS011;2059;48.538;12.146;2024-03-06T12:04:42;21.20;;;18.80;;
4089;SDS011;2059;48.538;12.146;2024-03-06T12:09:44;30.37;;;25.50;;
4089;SDS011;2059;48.538;12.146;2024-03-06T12:14:56;33.73;;;26.03;;
4089;SDS011;2059;48.538;12.146;2024-03-06T12:19:59;21.70;;;19.50;;
4089;SDS011;2059;48.538;12.146;2024-03-06T12:25:02;26.80;;;23.00;;
4089;SDS011;2059;48.538;12.146;2024-03-06T12:30:09;22.07;;;19.77;;
4089;SDS011;2059;48.538;12.146;2024-03-06T12:35:13;21.13;;;19.13;;
4089;SDS011;2059;48.538;12.146;2024-03-06T12:40:25;20.97;;;18.80;;
4089;SDS011;2059;48.538;12.146;2024-03-06T12:45:30;19.30;;;17.40;;
4089;SDS011;2059;48.538;12.146;2024-03-06T12:50:32;19.63;;;17.53;;
4089;SDS011;2059;48.538;12.146;2024-03-06T12:55:34;20.87;;;18.67;;
4089;SDS011;2059;48.538;12.146;2024-03-06T13:00:37;21.80;;;19.50;;
4089;SDS011;2059;48.538;12.146;2024-03-06T13:05:39;20.57;;;18.47;;
4089;SDS011;2059;48.538;12.146;2024-03-06T13:10:41;20.60;;;18.50;;
4089;SDS011;2059;48.538;12.146;2024-03-06T13:15:44;20.60;;;18.60;;
4089;SDS011;2059;48.538;12.146;2024-03-06T13:20:48;20.73;;;18.80;;
4089;SDS011;2059;48.538;12.146;2024-03-06T13:25:50;20.37;;;18.37;;
4089;SDS011;2059;48.538;12.146;2024-03-06T13:30:53;21.27;;;19.03;;
4089;SDS011;2059;48.538;12.146;2024-03-06T13:35:54;20.70;;;18.50;;
4089;SDS011;2059;48.538;12.146;2024-03-06T13:40:58;23.43;;;20.33;;
4089;SDS011;2059;48.538;12.146;2024-03-06T13:46:03;20.67;;;18.67;;
4089;SDS011;2059;48.538;12.146;2024-03-06T13:51:15;21.73;;;19.43;;
4089;SDS011;2059;48.538;12.146;2024-03-06T13:56:19;20.43;;;18.40;;
4089;SDS011;2059;48.538;12.146;2024-03-06T14:01:22;22.47;;;20.03;;
4089;SDS011;2059;48.538;12.146;2024-03-06T14:06:26;21.53;;;19.07;;
4089;SDS011;2059;48.538;12.146;2024-03-06T14:11:57;22.00;;;19.57;;
4089;SDS011;2059;48.538;12.146;2024-03-06T14:23:00;22.00;;;19.43;;
4089;SDS011;2059;48.538;12.146;2024-03-06T14:34:52;23.63;;;21.07;;
4089;SDS011;2059;48.538;12.146;2024-03-06T14:52:41;23.50;;;20.70;;
4089;SDS011;2059;48.538;12.146;2024-03-06T14:57:55;24.23;;;21.60;;
4089;SDS011;2059;48.538;12.146;2024-03-06T15:03:18;24.27;;;21.67;;
4089;SDS011;2059;48.538;12.146;2024-03-06T15:08:29;28.40;;;20.80;;
4089;SDS011;2059;48.538;12.146;2024-03-06T15:13:48;24.03;;;21.50;;
4089;SDS011;2059;48.538;12.146;2024-03-06T15:18:53;25.77;;;22.27;;
4089;SDS011;2059;48.538;12.146;2024-03-06T15:24:11;26.60;;;21.20;;
4089;SDS011;2059;48.538;12.146;2024-03-06T15:29:20;29.50;;;23.90;;
4089;SDS011;2059;48.538;12.146;2024-03-06T15:34:42;23.93;;;20.80;;
4089;SDS011;2059;48.538;12.146;2024-03-06T15:51:43;23.53;;;20.97;;
4089;SDS011;2059;48.538;12.146;2024-03-06T15:56:48;27.00;;;21.50;;
4089;SDS011;2059;48.538;12.146;2024-03-06T16:02:33;25.10;;;21.90;;
4089;SDS011;2059;48.538;12.146;2024-03-06T16:25:30;26.83;;;22.83;;
4089;SDS011;2059;48.538;12.146;2024-03-06T16:30:33;26.50;;;22.47;;
4089;SDS011;2059;48.538;12.146;2024-03-06T16:35:35;26.97;;;22.33;;
4089;SDS011;2059;48.538;12.146;2024-03-06T16:40:39;27.70;;;22.67;;
4089;SDS011;2059;48.538;12.146;2024-03-06T16:45:41;30.17;;;22.70;;
4089;SDS011;2059;48.538;12.146;2024-03-06T16:51:01;27.67;;;21.83;;
4089;SDS011;2059;48.538;12.146;2024-03-06T16:56:19;31.80;;;23.17;;
4089;SDS011;2059;48.538;12.146;2024-03-06T17:07:23;30.63;;;23.47;;
4089;SDS011;2059;48.538;12.146;2024-03-06T17:12:59;34.20;;;25.00;;
4089;SDS011;2059;48.538;12.146;2024-03-06T17:18:01;33.87;;;25.30;;
4089;SDS011;2059;48.538;12.146;2024-03-06T17:23:03;36.30;;;25.63;;
4089;SDS011;2059;48.538;12.146;2024-03-06T17:28:06;31.27;;;24.73;;
4089;SDS011;2059;48.538;12.146;2024-03-06T17:33:09;32.60;;;24.63;;
4089;SDS011;2059;48.538;12.146;2024-03-06T17:38:16;33.07;;;25.43;;
4089;SDS011;2059;48.538;12.146;2024-03-06T17:43:36;35.07;;;25.47;;
4089;SDS011;2059;48.538;12.146;2024-03-06T17:48:39;34.50;;;24.77;;
4089;SDS011;2059;48.538;12.146;2024-03-06T17:59:29;39.37;;;28.60;;
4089;SDS011;2059;48.538;12.146;2024-03-06T18:04:32;37.97;;;26.77;;
4089;SDS011;2059;48.538;12.146;2024-03-06T18:09:34;40.90;;;28.60;;
4089;SDS011;2059;48.538;12.146;2024-03-06T18:14:38;39.27;;;27.60;;
4089;SDS011;2059;48.538;12.146;2024-03-06T18:19:39;40.40;;;28.63;;
4089;SDS011;2059;48.538;12.146;2024-03-06T18:24:41;40.33;;;28.00;;
4089;SDS011;2059;48.538;12.146;2024-03-06T18:29:45;37.30;;;27.70;;
4089;SDS011;2059;48.538;12.146;2024-03-06T18:34:47;37.90;;;27.53;;
4089;SDS011;2059;48.538;12.146;2024-03-06T18:39:51;40.00;;;28.03;;
4089;SDS011;2059;48.538;12.146;2024-03-06T18:44:54;39.93;;;27.60;;
4089;SDS011;2059;48.538;12.146;2024-03-06T18:49:56;38.90;;;28.00;;
4089;SDS011;2059;48.538;12.146;2024-03-06T18:54:58;41.97;;;29.87;;
4089;SDS011;2059;48.538;12.146;2024-03-06T19:00:01;37.57;;;28.43;;
4089;SDS011;2059;48.538;12.146;2024-03-06T19:05:03;37.20;;;27.47;;
4089;SDS011;2059;48.538;12.146;2024-03-06T19:10:06;37.27;;;26.40;;
4089;SDS011;2059;48.538;12.146;2024-03-06T19:15:09;36.93;;;27.90;;
4089;SDS011;2059;48.538;12.146;2024-03-06T19:20:11;36.13;;;27.23;;
4089;SDS011;2059;48.538;12.146;2024-03-06T19:25:13;37.37;;;28.37;;
4089;SDS011;2059;48.538;12.146;2024-03-06T19:30:16;37.40;;;27.63;;
4089;SDS011;2059;48.538;12.146;2024-03-06T19:35:18;37.70;;;26.93;;
4089;SDS011;2059;48.538;12.146;2024-03-06T19:40:19;31.67;;;24.70;;
4089;SDS011;2059;48.538;12.146;2024-03-06T19:45:23;36.70;;;26.90;;
4089;SDS011;2059;48.538;12.146;2024-03-06T19:50:24;38.70;;;27.47;;
4089;SDS011;2059;48.538;12.146;2024-03-06T19:55:27;32.30;;;24.93;;
4089;SDS011;2059;48.538;12.146;2024-03-06T20:00:31;36.80;;;26.30;;
4089;SDS011;2059;48.538;12.146;2024-03-06T20:05:33;36.50;;;26.43;;
4089;SDS011;2059;48.538;12.146;2024-03-06T20:10:35;34.33;;;26.23;;
4089;SDS011;2059;48.538;12.146;2024-03-06T20:15:38;35.83;;;25.97;;
4089;SDS011;2059;48.538;12.146;2024-03-06T20:20:40;38.67;;;28.03;;
4089;SDS011;2059;48.538;12.146;2024-03-06T20:25:42;36.80;;;26.97;;
4089;SDS011;2059;48.538;12.146;2024-03-06T20:30:45;36.53;;;26.33;;
4089;SDS011;2059;48.538;12.146;2024-03-06T20:35:47;34.80;;;26.10;;
4089;SDS011;2059;48.538;12.146;2024-03-06T20:40:49;34.70;;;26.40;;
4089;SDS011;2059;48.538;12.146;2024-03-06T20:45:52;32.43;;;24.90;;
4089;SDS011;2059;48.538;12.146;2024-03-06T20:50:54;36.00;;;26.70;;
4089;SDS011;2059;48.538;12.146;2024-03-06T20:55:56;37.80;;;27.33;;
4089;SDS011;2059;48.538;12.146;2024-03-06T21:00:59;32.07;;;22.83;;
4089;SDS011;2059;48.538;12.146;2024-03-06T21:06:01;30.80;;;23.83;;
4089;SDS011;2059;48.538;12.146;2024-03-06T21:11:03;33.00;;;23.30;;
4089;SDS011;2059;48.538;12.146;2024-03-06T21:16:08;31.20;;;23.33;;
4089;SDS011;2059;48.538;12.146;2024-03-06T21:21:10;30.70;;;23.40;;
4089;SDS011;2059;48.538;12.146;2024-03-06T21:26:12;36.60;;;25.43;;
4089;SDS011;2059;48.538;12.146;2024-03-06T21:31:15;32.57;;;24.97;;
4089;SDS011;2059;48.538;12.146;2024-03-06T21:36:16;32.80;;;24.80;;
4089;SDS011;2059;48.538;12.146;2024-03-06T21:41:18;34.17;;;24.40;;
4089;SDS011;2059;48.538;12.146;2024-03-06T21:46:21;32.23;;;24.57;;
4089;SDS011;2059;48.538;12.146;2024-03-06T21:51:23;35.07;;;25.93;;
4089;SDS011;2059;48.538;12.146;2024-03-06T21:56:24;28.63;;;22.97;;
4089;SDS011;2059;48.538;12.146;2024-03-06T22:01:27;29.93;;;23.63;;
4089;SDS011;2059;48.538;12.146;2024-03-06T22:06:29;31.70;;;24.33;;
4089;SDS011;2059;48.538;12.146;2024-03-06T22:11:31;30.50;;;22.83;;
4089;SDS011;2059;48.538;12.146;2024-03-06T22:16:34;28.90;;;22.37;;
4089;SDS011;2059;48.538;12.146;2024-03-06T22:21:36;37.37;;;22.87;;
4089;SDS011;2059;48.538;12.146;2024-03-06T22:26:38;29.97;;;23.53;;
4089;SDS011;2059;48.538;12.146;2024-03-06T22:31:41;34.90;;;25.30;;
4089;SDS011;2059;48.538;12.146;2024-03-06T22:36:43;29.77;;;24.03;;
4089;SDS011;2059;48.538;12.146;2024-03-06T22:41:45;33.80;;;26.50;;
4089;SDS011;2059;48.538;12.146;2024-03-06T22:46:48;34.20;;;27.27;;
4089;SDS011;2059;48.538;12.146;2024-03-06T22:51:50;31.20;;;26.27;;
4089;SDS011;2059;48.538;12.146;2024-03-06T22:56:52;33.63;;;26.27;;
4089;SDS011;2059;48.538;12.146;2024-03-06T23:01:55;33.30;;;27.03;;
4089;SDS011;2059;48.538;12.146;2024-03-06T23:06:57;36.00;;;28.53;;
4089;SDS011;2059;48.538;12.146;2024-03-06T23:11:59;33.00;;;26.33;;
4089;SDS011;2059;48.538;12.146;2024-03-06T23:17:02;38.80;;;28.77;;
4089;SDS011;2059;48.538;12.146;2024-03-06T23:22:04;38.20;;;26.90;;
4089;SDS011;2059;48.538;12.146;2024-03-06T23:27:05;37.93;;;27.53;;
4089;SDS011;2059;48.538;12.146;2024-03-06T23:32:08;36.97;;;25.87;;
4089;SDS011;2059;48.538;12.146;2024-03-06T23:37:10;33.43;;;27.03;;
4089;SDS011;2059;48.538;12.146;2024-03-06T23:42:12;35.43;;;27.07;;
4089;SDS011;2059;48.538;12.146;2024-03-06T23:47:15;34.30;;;27.20;;
4089;SDS011;2059;48.538;12.146;2024-03-06T23:52:17;38.30;;;29.70;;
4089;SDS011;2059;48.538;12.146;2024-03-06T23:57:19;34.83;;;28.03;;
